createdAt,value
2023-01-17T00:00:00.147Z,2.32
2023-01-17T00:02:26.648Z,2.23
2023-01-17T00:05:11.593Z,2.15
2023-01-17T00:07:56.431Z,2.12
2023-01-17T00:10:25.433Z,2.08
2023-01-17T00:12:57.376Z,2.04
2023-01-17T00:15:24.789Z,2.01
2023-01-17T00:17:51.659Z,2.07
2023-01-17T00:20:39.082Z,2.05
2023-01-17T00:23:42.732Z,2.15
2023-01-17T00:26:13.120Z,2.10
2023-01-17T00:28:41.366Z,2.23
2023-01-17T00:31:09.450Z,2.27
2023-01-17T00:33:36.467Z,2.26
2023-01-17T00:36:04.359Z,2.26
2023-01-17T00:38:33.320Z,2.29
2023-01-17T00:41:08.314Z,2.27
2023-01-17T00:43:53.262Z,2.21
2023-01-17T00:46:38.720Z,2.21
2023-01-17T00:49:24.469Z,2.28
2023-01-17T00:52:09.821Z,2.20
2023-01-17T00:54:54.625Z,2.36
2023-01-17T00:57:39.488Z,2.33
2023-01-17T01:00:25.490Z,2.25
2023-01-17T01:03:10.751Z,2.21
2023-01-17T01:05:56.731Z,2.23
2023-01-17T01:08:45.388Z,2.11
2023-01-17T01:11:36.009Z,2.19
2023-01-17T01:14:21.989Z,2.19
2023-01-17T01:17:07.353Z,2.19
2023-01-17T01:19:52.878Z,2.21
2023-01-17T01:22:37.830Z,2.17
2023-01-17T01:25:23.217Z,2.30
2023-01-17T01:28:08.515Z,2.12
2023-01-17T01:30:53.929Z,2.14
2023-01-17T01:33:20.581Z,2.15
2023-01-17T01:35:53.621Z,2.23
2023-01-17T01:38:22.523Z,2.22
2023-01-17T01:40:52.035Z,2.00
2023-01-17T01:43:21.908Z,2.19
2023-01-17T01:45:57.301Z,2.06
2023-01-17T01:48:39.575Z,2.18
2023-01-17T01:51:10.262Z,2.25
2023-01-17T01:53:40.712Z,2.15
2023-01-17T01:56:11.286Z,2.15
2023-01-17T01:58:40.027Z,2.14
2023-01-17T02:01:08.425Z,2.03
2023-01-17T02:03:37.575Z,1.96
2023-01-17T02:06:24.791Z,2.03
2023-01-17T02:08:51.872Z,1.92
2023-01-17T02:11:18.721Z,1.94
2023-01-17T02:13:45.258Z,1.88
2023-01-17T02:16:30.976Z,1.81
2023-01-17T02:19:32.930Z,1.71
2023-01-17T02:22:08.107Z,1.79
2023-01-17T02:24:53.640Z,1.62
2023-01-17T02:27:28.403Z,1.54
2023-01-17T02:30:41.677Z,1.38
2023-01-17T02:33:55.752Z,1.31
2023-01-17T02:36:46.053Z,1.32
2023-01-17T02:39:39.297Z,1.24
2023-01-17T02:42:11.010Z,1.23
2023-01-17T02:44:44.390Z,1.24
2023-01-17T02:47:24.364Z,1.18
2023-01-17T02:49:53.727Z,1.16
2023-01-17T02:52:50.848Z,1.15
2023-01-17T02:55:48.225Z,1.17
2023-01-17T02:58:17.539Z,1.14
2023-01-17T03:01:20.649Z,1.16
2023-01-17T03:03:54.912Z,1.13
2023-01-17T03:06:51.459Z,1.13
2023-01-17T03:09:19.084Z,1.19
2023-01-17T03:11:45.623Z,1.23
2023-01-17T03:14:12.437Z,1.19
2023-01-17T03:16:39.535Z,1.27
2023-01-17T03:19:05.944Z,1.27
2023-01-17T03:21:32.371Z,1.26
2023-01-17T03:23:58.797Z,1.29
2023-01-17T03:26:25.232Z,1.37
2023-01-17T03:28:51.737Z,1.47
2023-01-17T03:31:19.896Z,1.53
2023-01-17T03:33:46.808Z,1.47
2023-01-17T03:36:13.316Z,1.53
2023-01-17T03:38:39.787Z,1.49
2023-01-17T03:41:07.297Z,1.48
2023-01-17T03:43:33.729Z,1.43
2023-01-17T03:46:08.309Z,1.41
2023-01-17T03:48:34.690Z,1.40
2023-01-17T03:51:01.105Z,1.45
2023-01-17T03:53:27.559Z,1.45
2023-01-17T03:55:54.016Z,1.44
2023-01-17T03:58:20.801Z,1.37
2023-01-17T04:00:47.281Z,1.46
2023-01-17T04:03:13.752Z,1.45
2023-01-17T04:05:40.274Z,1.33
2023-01-17T04:08:07.332Z,1.30
2023-01-17T04:10:33.934Z,1.30
2023-01-17T04:13:00.336Z,1.20
2023-01-17T04:15:26.781Z,1.25
2023-01-17T04:17:53.303Z,1.14
2023-01-17T04:20:33.853Z,1.19
2023-01-17T04:23:00.620Z,1.19
2023-01-17T04:25:30.026Z,0.88
2023-01-17T04:27:57.750Z,0.76
2023-01-17T04:30:24.616Z,0.74
2023-01-17T04:32:51.234Z,0.76
2023-01-17T04:35:17.620Z,0.60
2023-01-17T04:37:44.054Z,0.64
2023-01-17T04:40:11.626Z,0.63
2023-01-17T04:42:38.208Z,0.61
2023-01-17T04:45:05.357Z,0.62
2023-01-17T04:47:33.678Z,0.61
2023-01-17T04:50:00.171Z,0.52
2023-01-17T04:52:26.599Z,0.71
2023-01-17T04:54:53.055Z,0.65
2023-01-17T04:57:20.026Z,0.51
2023-01-17T04:59:47.140Z,0.53
2023-01-17T05:02:14.181Z,0.67
2023-01-17T05:04:40.779Z,0.80
2023-01-17T05:07:07.225Z,0.78
2023-01-17T05:09:33.666Z,0.84
2023-01-17T05:12:00.171Z,0.88
2023-01-17T05:14:26.945Z,0.71
2023-01-17T05:16:54.996Z,0.72
2023-01-17T05:19:22.640Z,0.83
2023-01-17T05:21:49.353Z,0.71
2023-01-17T05:24:15.917Z,0.65
2023-01-17T05:26:43.219Z,0.66
2023-01-17T05:29:10.605Z,0.60
2023-01-17T05:31:37.369Z,0.53
2023-01-17T05:34:03.989Z,0.50
2023-01-17T05:36:30.567Z,0.52
2023-01-17T05:38:56.949Z,0.42
2023-01-17T05:41:23.437Z,0.33
2023-01-17T05:43:49.833Z,0.33
2023-01-17T05:46:18.062Z,0.25
2023-01-17T05:48:44.673Z,0.24
2023-01-17T05:51:11.070Z,0.19
2023-01-17T05:53:37.558Z,0.15
2023-01-17T05:56:04.193Z,0.16
2023-01-17T05:58:30.604Z,0.15
2023-01-17T06:00:57.152Z,0.16
2023-01-17T06:03:23.650Z,0.06
2023-01-17T06:05:50.252Z,0.18
2023-01-17T06:08:16.778Z,0.17
2023-01-17T06:10:43.596Z,0.10
2023-01-17T06:13:13.600Z,0.08
2023-01-17T06:15:40.174Z,0.09
2023-01-17T06:18:14.199Z,0.08
2023-01-17T06:20:41.462Z,0.08
2023-01-17T06:23:11.498Z,0.05
2023-01-17T06:25:39.158Z,0.00
2023-01-17T06:28:07.398Z,0.02
2023-01-17T06:30:34.267Z,-0.15
2023-01-17T06:33:00.882Z,-0.09
2023-01-17T06:35:27.401Z,-0.06
2023-01-17T06:37:55.475Z,-0.03
2023-01-17T06:40:22.569Z,-0.05
2023-01-17T06:42:48.949Z,-0.18
2023-01-17T06:45:15.546Z,-0.19
2023-01-17T06:47:42.426Z,-0.18
2023-01-17T06:50:12.304Z,-0.23
2023-01-17T06:52:38.916Z,-0.30
2023-01-17T06:55:06.240Z,-0.41
2023-01-17T06:57:33.439Z,-0.45
2023-01-17T06:59:59.910Z,-0.56
2023-01-17T07:02:26.430Z,-0.63
2023-01-17T07:04:52.880Z,-0.70
2023-01-17T07:07:19.334Z,-0.69
2023-01-17T07:09:45.741Z,-0.70
2023-01-17T07:12:12.305Z,-0.64
2023-01-17T07:14:38.740Z,-0.61
2023-01-17T07:17:05.799Z,-0.65
2023-01-17T07:19:32.259Z,-0.94
2023-01-17T07:21:58.909Z,-0.99
2023-01-17T07:24:25.336Z,-1.11
2023-01-17T07:26:52.224Z,-1.06
2023-01-17T07:29:19.183Z,-0.93
2023-01-17T07:31:45.619Z,-0.91
2023-01-17T07:34:12.064Z,-0.80
2023-01-17T07:36:38.530Z,-0.72
2023-01-17T07:39:06.392Z,-0.77
2023-01-17T07:41:34.712Z,-0.99
2023-01-17T07:44:01.244Z,-1.08
2023-01-17T07:46:27.786Z,-1.02
2023-01-17T07:48:54.295Z,-0.94
2023-01-17T07:51:20.813Z,-0.85
2023-01-17T07:53:47.199Z,-0.73
2023-01-17T07:56:13.722Z,-0.40
2023-01-17T07:58:40.271Z,0.17
2023-01-17T08:01:09.994Z,1.06
2023-01-17T08:03:40.187Z,1.59
2023-01-17T08:06:29.279Z,1.77
2023-01-17T08:08:58.829Z,2.42
2023-01-17T08:11:25.782Z,2.71
2023-01-17T08:13:57.355Z,3.03
2023-01-17T08:16:27.055Z,3.60
2023-01-17T08:18:55.133Z,4.22
2023-01-17T08:21:21.689Z,5.04
2023-01-17T08:23:51.467Z,3.81
2023-01-17T08:26:22.292Z,4.66
2023-01-17T08:28:55.062Z,5.06
2023-01-17T08:31:21.610Z,4.89
2023-01-17T08:33:48.054Z,5.32
2023-01-17T08:36:14.433Z,5.51
2023-01-17T08:38:40.905Z,5.84
2023-01-17T08:41:07.316Z,6.23
2023-01-17T08:43:33.938Z,6.56
2023-01-17T08:46:01.227Z,6.49
2023-01-17T08:48:27.742Z,6.14
2023-01-17T08:50:54.249Z,6.11
2023-01-17T08:53:23.105Z,5.64
2023-01-17T08:55:57.848Z,6.37
2023-01-17T08:58:24.302Z,6.86
2023-01-17T09:00:50.979Z,6.98
2023-01-17T09:03:17.423Z,7.88
2023-01-17T09:05:43.849Z,8.25
2023-01-17T09:08:10.292Z,8.32
2023-01-17T09:10:37.127Z,8.53
2023-01-17T09:13:06.670Z,8.49
2023-01-17T09:15:33.124Z,8.98
2023-01-17T09:18:01.285Z,9.20
2023-01-17T09:20:30.158Z,9.14
2023-01-17T09:22:57.377Z,9.31
2023-01-17T09:25:23.784Z,9.22
2023-01-17T09:27:50.250Z,9.08
2023-01-17T09:30:17.166Z,9.07
2023-01-17T09:32:43.636Z,9.33
2023-01-17T09:35:10.268Z,8.37
2023-01-17T09:37:37.010Z,9.53
2023-01-17T09:40:03.751Z,10.00
2023-01-17T09:42:39.233Z,8.87
2023-01-17T09:45:14.648Z,10.00
2023-01-17T09:47:48.126Z,10.92
2023-01-17T09:50:31.809Z,11.97
2023-01-17T09:53:02.669Z,11.99
2023-01-17T09:55:37.024Z,12.80
2023-01-17T09:58:10.353Z,13.52
2023-01-17T10:01:12.360Z,13.10
2023-01-17T10:04:03.242Z,11.14
2023-01-17T10:06:51.945Z,11.37
2023-01-17T10:09:35.197Z,11.89
2023-01-17T10:12:07.751Z,11.68
2023-01-17T10:15:03.024Z,10.52
2023-01-17T10:18:03.557Z,11.10
2023-01-17T10:21:05.294Z,11.60
2023-01-17T10:23:46.520Z,9.54
2023-01-17T10:26:25.226Z,8.96
2023-01-17T10:28:55.399Z,8.92
2023-01-17T10:31:44.972Z,7.23
2023-01-17T10:34:23.141Z,7.37
2023-01-17T10:36:55.128Z,7.15
2023-01-17T10:39:26.279Z,9.65
2023-01-17T10:42:00.702Z,11.25
2023-01-17T10:44:30.205Z,10.09
2023-01-17T10:47:08.652Z,10.34
2023-01-17T10:49:40.139Z,11.71
2023-01-17T10:52:19.033Z,12.79
2023-01-17T10:55:08.612Z,11.66
2023-01-17T10:57:44.292Z,11.89
2023-01-17T11:00:43.917Z,12.85
2023-01-17T11:03:12.494Z,13.41
2023-01-17T11:05:41.132Z,12.48
2023-01-17T11:08:08.381Z,13.18
2023-01-17T11:10:41.985Z,12.71
2023-01-17T11:13:23.759Z,12.89
2023-01-17T11:15:57.404Z,13.64
2023-01-17T11:18:28.238Z,12.49
2023-01-17T11:21:09.443Z,11.79
2023-01-17T11:23:36.059Z,9.20
2023-01-17T11:26:05.947Z,7.80
2023-01-17T11:28:34.547Z,7.45
2023-01-17T11:31:04.222Z,7.28
2023-01-17T11:33:45.918Z,7.40
2023-01-17T11:36:19.646Z,7.11
2023-01-17T11:39:02.992Z,7.18
2023-01-17T11:41:42.111Z,7.27
2023-01-17T11:44:28.013Z,7.38
2023-01-17T11:47:15.631Z,7.25
2023-01-17T11:49:44.463Z,7.08
2023-01-17T11:52:17.072Z,7.19
2023-01-17T11:54:47.391Z,7.18
2023-01-17T11:57:22.667Z,7.14
2023-01-17T11:59:51.616Z,6.97
2023-01-17T12:02:37.717Z,6.65
2023-01-17T12:05:25.329Z,6.45
2023-01-17T12:08:03.752Z,6.35
2023-01-17T12:10:38.590Z,6.13
2023-01-17T12:13:35.107Z,5.89
2023-01-17T12:16:32.698Z,5.48
2023-01-17T12:19:22.235Z,5.32
2023-01-17T12:22:14.026Z,5.11
2023-01-17T12:24:40.462Z,5.32
2023-01-17T12:27:38.587Z,5.24
2023-01-17T12:30:32.767Z,5.10
2023-01-17T12:33:19.180Z,4.97
2023-01-17T12:35:52.812Z,4.77
2023-01-17T12:38:39.812Z,4.94
2023-01-17T12:41:09.633Z,4.82
2023-01-17T12:43:45.952Z,4.97
2023-01-17T12:46:21.340Z,5.28
2023-01-17T12:48:54.366Z,5.41
2023-01-17T12:51:30.889Z,5.32
2023-01-17T12:54:15.998Z,5.33
2023-01-17T12:56:54.105Z,5.22
2023-01-17T12:59:26.517Z,5.31
2023-01-17T13:01:58.273Z,5.25
2023-01-17T13:04:58.097Z,5.76
2023-01-17T13:07:32.687Z,6.55
2023-01-17T13:10:21.231Z,7.25
2023-01-17T13:12:49.468Z,7.52
2023-01-17T13:15:18.322Z,7.96
2023-01-17T13:17:49.777Z,8.24
2023-01-17T13:20:28.801Z,8.66
2023-01-17T13:23:01.511Z,8.83
2023-01-17T13:25:45.957Z,8.78
2023-01-17T13:28:40.364Z,8.32
2023-01-17T13:31:45.521Z,8.61
2023-01-17T13:34:56.253Z,8.18
2023-01-17T13:37:45.716Z,8.62
2023-01-17T13:40:29.553Z,8.48
2023-01-17T13:43:02.249Z,8.72
2023-01-17T13:45:34.842Z,8.83
2023-01-17T13:48:14.754Z,9.18
2023-01-17T13:50:41.160Z,9.55
2023-01-17T13:53:35.536Z,9.66
2023-01-17T13:56:31.457Z,9.48
2023-01-17T13:59:03.877Z,8.78
2023-01-17T14:01:34.697Z,8.55
2023-01-17T14:04:04.951Z,8.06
2023-01-17T14:06:46.421Z,7.60
2023-01-17T14:09:12.782Z,7.32
2023-01-17T14:12:04.240Z,7.19
2023-01-17T14:14:40.025Z,6.94
2023-01-17T14:17:28.185Z,6.95
2023-01-17T14:20:01.520Z,6.83
2023-01-17T14:22:31.414Z,6.72
2023-01-17T14:25:15.175Z,6.75
2023-01-17T14:27:54.464Z,6.39
2023-01-17T14:30:25.776Z,6.01
2023-01-17T14:33:01.429Z,5.70
2023-01-17T14:35:39.010Z,5.43
2023-01-17T14:38:20.262Z,5.14
2023-01-17T14:41:00.502Z,4.80
2023-01-17T14:43:32.269Z,4.67
2023-01-17T14:46:05.023Z,4.74
2023-01-17T14:48:31.567Z,4.46
2023-01-17T14:51:01.992Z,4.43
2023-01-17T14:53:31.439Z,4.18
2023-01-17T14:55:59.534Z,3.97
2023-01-17T14:58:34.645Z,3.86
2023-01-17T15:01:12.970Z,3.90
2023-01-17T15:03:54.177Z,3.67
2023-01-17T15:06:29.144Z,3.54
2023-01-17T15:08:55.698Z,3.44
2023-01-17T15:11:28.138Z,3.45
2023-01-17T15:13:57.541Z,3.34
2023-01-17T15:16:30.190Z,3.40
2023-01-17T15:18:57.740Z,3.37
2023-01-17T15:21:28.029Z,3.31
2023-01-17T15:23:57.376Z,3.16
2023-01-17T15:26:27.030Z,2.99
2023-01-17T15:29:03.103Z,2.84
2023-01-17T15:32:00.041Z,2.62
2023-01-17T15:34:30.990Z,2.52
2023-01-17T15:37:01.298Z,2.37
2023-01-17T15:39:31.860Z,2.24
2023-01-17T15:42:02.427Z,2.15
2023-01-17T15:44:49.383Z,1.94
2023-01-17T15:47:38.480Z,1.77
2023-01-17T15:50:19.951Z,1.61
2023-01-17T15:52:51.917Z,1.67
2023-01-17T15:55:45.368Z,1.55
2023-01-17T15:58:30.091Z,1.40
2023-01-17T16:00:57.068Z,1.34
2023-01-17T16:03:32.104Z,1.23
2023-01-17T16:06:01.113Z,1.17
2023-01-17T16:08:38.777Z,1.07
2023-01-17T16:11:07.068Z,0.99
2023-01-17T16:13:38.528Z,0.85
2023-01-17T16:16:23.248Z,0.72
2023-01-17T16:18:57.712Z,0.61
2023-01-17T16:21:29.469Z,0.51
2023-01-17T16:23:56.770Z,0.45
2023-01-17T16:26:24.268Z,0.28
2023-01-17T16:28:51.683Z,0.23
2023-01-17T16:31:18.871Z,0.06
2023-01-17T16:33:48.139Z,0.06
2023-01-17T16:36:16.392Z,0.03
2023-01-17T16:38:44.694Z,-0.03
2023-01-17T16:41:11.637Z,-0.18
2023-01-17T16:43:38.183Z,-0.35
2023-01-17T16:46:05.893Z,-0.36
2023-01-17T16:48:32.529Z,-0.34
2023-01-17T16:50:59.395Z,-0.31
2023-01-17T16:53:28.012Z,-0.36
2023-01-17T16:55:58.012Z,-0.44
2023-01-17T16:58:25.045Z,-0.55
2023-01-17T17:00:51.820Z,-0.51
2023-01-17T17:03:20.808Z,-0.58
2023-01-17T17:05:55.807Z,-0.64
2023-01-17T17:08:23.101Z,-0.69
2023-01-17T17:10:50.109Z,-0.72
2023-01-17T17:13:16.661Z,-0.74
2023-01-17T17:15:44.037Z,-0.81
2023-01-17T17:18:15.350Z,-0.89
2023-01-17T17:20:42.084Z,-0.91
2023-01-17T17:23:09.984Z,-0.92
2023-01-17T17:25:37.440Z,-0.94
2023-01-17T17:28:04.860Z,-1.00
2023-01-17T17:30:31.550Z,-1.00
2023-01-17T17:32:58.434Z,-1.00
2023-01-17T17:35:24.898Z,-0.99
2023-01-17T17:37:51.593Z,-0.89
2023-01-17T17:40:18.169Z,-0.98
2023-01-17T17:42:44.611Z,-1.10
2023-01-17T17:45:11.273Z,-1.17
2023-01-17T17:47:37.665Z,-1.28
2023-01-17T17:50:04.349Z,-1.27
2023-01-17T17:52:32.353Z,-1.26
2023-01-17T17:54:59.016Z,-1.24
2023-01-17T17:57:25.479Z,-1.33
2023-01-17T17:59:51.886Z,-1.30
2023-01-17T18:02:18.322Z,-1.29
2023-01-17T18:04:44.783Z,-1.32
2023-01-17T18:07:11.223Z,-1.33
2023-01-17T18:09:39.169Z,-1.21
2023-01-17T18:12:05.764Z,-1.25
2023-01-17T18:14:32.398Z,-1.31
2023-01-17T18:16:58.891Z,-1.31
2023-01-17T18:19:26.433Z,-1.29
2023-01-17T18:21:53.157Z,-1.32
2023-01-17T18:24:24.551Z,-1.35
2023-01-17T18:26:56.880Z,-1.43
2023-01-17T18:29:25.228Z,-1.43
2023-01-17T18:31:54.977Z,-1.47
2023-01-17T18:34:24.340Z,-1.46
2023-01-17T18:36:51.849Z,-1.46
2023-01-17T18:39:24.455Z,-1.47
2023-01-17T18:41:51.566Z,-1.42
2023-01-17T18:44:21.757Z,-1.41
2023-01-17T18:46:50.099Z,-1.48
2023-01-17T18:49:19.164Z,-1.42
2023-01-17T18:51:49.098Z,-1.47
2023-01-17T18:54:16.392Z,-1.50
2023-01-17T18:56:42.953Z,-1.45
2023-01-17T18:59:12.507Z,-1.53
2023-01-17T19:01:42.277Z,-1.49
2023-01-17T19:04:09.345Z,-1.63
2023-01-17T19:06:38.312Z,-1.56
2023-01-17T19:09:07.402Z,-1.49
2023-01-17T19:11:34.889Z,-1.54
2023-01-17T19:14:01.334Z,-1.42
2023-01-17T19:16:30.298Z,-1.43
2023-01-17T19:19:01.589Z,-1.43
2023-01-17T19:21:29.375Z,-1.47
2023-01-17T19:23:57.253Z,-1.39
2023-01-17T19:26:27.098Z,-1.24
2023-01-17T19:28:55.954Z,-1.21
2023-01-17T19:31:25.158Z,-1.17
2023-01-17T19:33:54.209Z,-1.10
2023-01-17T19:36:23.592Z,-1.02
2023-01-17T19:39:03.347Z,-1.06
2023-01-17T19:41:32.173Z,-1.11
2023-01-17T19:44:00.809Z,-1.09
2023-01-17T19:46:27.725Z,-1.08
2023-01-17T19:48:55.827Z,-1.11
2023-01-17T19:51:23.429Z,-1.12
2023-01-17T19:53:50.333Z,-1.11
2023-01-17T19:56:19.181Z,-1.12
2023-01-17T19:58:46.849Z,-1.14
2023-01-17T20:01:19.442Z,-1.15
2023-01-17T20:03:47.156Z,-1.09
2023-01-17T20:06:16.031Z,-1.05
2023-01-17T20:08:43.350Z,-1.06
2023-01-17T20:11:15.347Z,-1.01
2023-01-17T20:13:42.260Z,-1.01
2023-01-17T20:16:11.040Z,-1.11
2023-01-17T20:18:38.146Z,-1.09
2023-01-17T20:21:06.834Z,-1.12
2023-01-17T20:23:38.725Z,-1.14
2023-01-17T20:26:06.138Z,-1.12
2023-01-17T20:28:34.584Z,-1.13
2023-01-17T20:31:09.207Z,-1.20
2023-01-17T20:33:36.426Z,-1.18
2023-01-17T20:36:10.283Z,-1.19
2023-01-17T20:38:43.952Z,-1.19
2023-01-17T20:41:29.117Z,-1.20
2023-01-17T20:43:57.857Z,-1.20
2023-01-17T20:46:40.615Z,-1.22
2023-01-17T20:49:18.607Z,-1.16
2023-01-17T20:51:46.518Z,-1.13
2023-01-17T20:54:15.585Z,-1.18
2023-01-17T20:56:42.607Z,-1.28
2023-01-17T20:59:12.798Z,-1.23
2023-01-17T21:01:39.491Z,-1.24
2023-01-17T21:04:09.950Z,-1.23
2023-01-17T21:06:39.583Z,-1.22
2023-01-17T21:09:08.678Z,-1.21
2023-01-17T21:11:35.814Z,-1.26
2023-01-17T21:14:02.243Z,-1.18
2023-01-17T21:16:28.800Z,-1.17
2023-01-17T21:18:55.563Z,-1.15
2023-01-17T21:21:25.271Z,-1.20
2023-01-17T21:23:54.895Z,-1.13
2023-01-17T21:26:22.525Z,-1.11
2023-01-17T21:28:50.675Z,-1.13
2023-01-17T21:31:24.360Z,-1.11
2023-01-17T21:33:52.319Z,-1.08
2023-01-17T21:36:20.200Z,-1.15
2023-01-17T21:38:52.385Z,-1.15
2023-01-17T21:41:20.971Z,-1.15
2023-01-17T21:43:48.263Z,-1.08
2023-01-17T21:46:14.817Z,-1.09
2023-01-17T21:48:41.262Z,-1.11
2023-01-17T21:51:08.484Z,-1.12
2023-01-17T21:53:39.364Z,-1.02
2023-01-17T21:56:29.247Z,-1.12
2023-01-17T21:58:57.197Z,-1.17
2023-01-17T22:01:26.857Z,-1.10
2023-01-17T22:04:01.566Z,-1.03
2023-01-17T22:06:34.514Z,-0.89
2023-01-17T22:09:01.043Z,-0.97
2023-01-17T22:11:30.190Z,-1.04
2023-01-17T22:13:58.969Z,-1.08
2023-01-17T22:16:26.425Z,-1.14
2023-01-17T22:18:52.897Z,-1.07
2023-01-17T22:21:20.569Z,-1.09
2023-01-17T22:23:49.187Z,-1.12
2023-01-17T22:26:16.514Z,-1.17
2023-01-17T22:28:43.258Z,-1.18
2023-01-17T22:31:24.471Z,-1.20
2023-01-17T22:33:59.604Z,-1.25
2023-01-17T22:36:26.717Z,-1.26
2023-01-17T22:38:53.237Z,-1.30
2023-01-17T22:41:23.360Z,-1.35
2023-01-17T22:43:52.455Z,-1.39
2023-01-17T22:46:21.615Z,-1.40
2023-01-17T22:48:48.890Z,-1.46
2023-01-17T22:51:17.560Z,-1.44
2023-01-17T22:53:47.201Z,-1.47
2023-01-17T22:56:22.165Z,-1.58
2023-01-17T22:58:49.134Z,-1.65
2023-01-17T23:01:18.201Z,-1.60
2023-01-17T23:03:46.377Z,-1.49
2023-01-17T23:06:14.550Z,-1.49
2023-01-17T23:08:43.715Z,-1.56
2023-01-17T23:11:43.278Z,-1.45
2023-01-17T23:14:20.650Z,-1.46
2023-01-17T23:17:20.675Z,-1.42
2023-01-17T23:19:48.177Z,-1.47
2023-01-17T23:22:17.650Z,-1.54
2023-01-17T23:24:48.721Z,-1.53
2023-01-17T23:27:35.298Z,-1.60
2023-01-17T23:30:04.525Z,-1.57
2023-01-17T23:32:31.152Z,-1.70
2023-01-17T23:34:57.648Z,-1.68
2023-01-17T23:37:47.012Z,-1.65
2023-01-17T23:40:13.567Z,-1.66
2023-01-17T23:43:03.178Z,-1.71
2023-01-17T23:45:29.632Z,-1.65
2023-01-17T23:47:56.077Z,-1.65
2023-01-17T23:50:22.496Z,-1.90
2023-01-17T23:52:48.866Z,-1.91
2023-01-17T23:55:15.364Z,-1.76
2023-01-17T23:57:41.807Z,-1.61
